Beale Air Force Base
KBAB : now visible

Airfield :











YOU CAN JOIN US ON...

 
LOGIN :

Register | Disclaimer

   EN    FR    IT 

 









Legend :    VFR   Marginal VFR   IFR   Intensive IFR   Very Intensive IFR
Visi :
Ceiling :
>= 8 km
>= 3000ft
5 to 8 km
1000 to 3000 ft
1500m to 5 km
500 to 1000 ft
800 to 1500m
200 to 500 ft
< 800m
< 200 ft
Symbols :   Thunderstorms  Fog  Heavy snow  Heavy precipitations  Wind > 20 kt






- Airport Elevation : 113 ft


KBAB - Beale Air Force Base

CURRENT METAR :
  • 021558Z AUTO 15012KT 10SM CLR 19/10 A2990 RMK AO2 SLP127 T01880101 $

EXPIRED METARs :
  • 021458Z AUTO 16013KT 10SM CLR 17/10 A2990 RMK AO2 SLP127 T01660100 52010 $
  • 020258Z AUTO 19005KT 10SM CLR 29/10 A2982 RMK AO2 SLP100 T02850097 56014 $
  • 021358Z AUTO 16010KT 10SM CLR 15/10 A2989 RMK AO2 SLP124 T01460100 $

TAF AMD TAF KBAB
Valid from the 02 at 14:00 until the 03 at 17:00 UTC


021430Z 0214/0317 14010KT 9999 SKC QNH2986INS
BECMG 0220/0221 17010G15KT 9999 SKC QNH2980INS
BECMG 0302/0303 15012G18KT 9999 SKC QNH2980INS
BECMG 0311/0312 15012KT 9999 BKN015 QNH2989INS TX29/0223Z TN12/0311Z
KZOA FIR / North America



MET'MAP, your aeronautical weather chart ! - Copyright ORBIFLY December 2007 - Disclaimer

ORBIFLY MET'MAP TEAM :

Programming & Development : Alexandra Zaïnal
Original concept : Baudouin d'Aumeries
Technical & hardware support : Manuel Goepfert
Assistance : Marc-Olivier Méhu




SOURCES & CREDITS :

   NOAA       Earth
Advisory